createdAt,value
2019-02-09T00:01:19.238Z,68.20
2019-02-09T00:04:23.469Z,68.40
2019-02-09T00:07:27.618Z,68.70
2019-02-09T00:10:31.828Z,69.00
2019-02-09T00:13:35.974Z,69.00
2019-02-09T00:16:40.741Z,69.20
2019-02-09T00:19:44.925Z,69.30
2019-02-09T00:22:49.069Z,69.50
2019-02-09T00:25:53.296Z,69.70
2019-02-09T00:28:57.494Z,69.80
2019-02-09T00:32:01.665Z,70.00
2019-02-09T00:35:06.074Z,70.20
2019-02-09T00:38:10.257Z,70.00
2019-02-09T00:41:14.379Z,69.80
2019-02-09T00:44:18.569Z,69.80
2019-02-09T00:47:22.711Z,69.80
2019-02-09T00:50:26.818Z,69.50
2019-02-09T00:53:30.965Z,69.40
2019-02-09T00:56:35.094Z,69.50
2019-02-09T00:59:39.339Z,69.60
2019-02-09T01:02:43.505Z,69.60
2019-02-09T01:05:48.705Z,69.30
2019-02-09T01:08:52.823Z,69.20
2019-02-09T01:11:57.046Z,69.10
2019-02-09T01:15:01.314Z,68.70
2019-02-09T01:18:05.492Z,68.80
2019-02-09T01:21:09.607Z,68.70
2019-02-09T01:24:13.829Z,68.90
2019-02-09T01:27:18.113Z,68.80
2019-02-09T01:30:23.444Z,68.90
2019-02-09T01:33:27.555Z,69.00
2019-02-09T01:36:31.702Z,69.40
2019-02-09T01:39:35.800Z,69.60
2019-02-09T01:42:39.940Z,69.80
2019-02-09T01:45:44.085Z,69.80
2019-02-09T01:48:48.427Z,70.00
2019-02-09T01:51:52.627Z,69.90
2019-02-09T01:54:56.757Z,69.20
2019-02-09T01:58:00.851Z,69.60
2019-02-09T02:01:05.034Z,69.60
2019-02-09T02:04:09.144Z,69.50
2019-02-09T02:07:13.350Z,69.40
2019-02-09T02:10:19.977Z,69.30
2019-02-09T02:13:24.177Z,69.10
2019-02-09T02:16:28.433Z,69.90
2019-02-09T02:19:32.620Z,68.20
2019-02-09T02:22:36.717Z,68.80
2019-02-09T02:26:18.629Z,68.70
2019-02-09T02:29:22.781Z,68.40
2019-02-09T02:32:27.109Z,68.20
2019-02-09T02:35:31.223Z,68.10
2019-02-09T02:38:35.432Z,68.10
2019-02-09T02:41:39.566Z,68.00
2019-02-09T02:44:43.831Z,68.00
2019-02-09T02:47:47.976Z,68.00
2019-02-09T02:50:52.120Z,68.00
2019-02-09T02:53:56.296Z,67.80
2019-02-09T02:57:00.439Z,67.90
2019-02-09T03:00:07.355Z,67.90
2019-02-09T03:03:11.596Z,67.90
2019-02-09T03:06:15.765Z,67.70
2019-02-09T03:09:19.896Z,67.70
2019-02-09T03:12:24.072Z,67.60
2019-02-09T03:15:30.353Z,67.80
2019-02-09T03:18:34.520Z,67.80
2019-02-09T03:21:39.014Z,68.00
2019-02-09T03:24:43.099Z,68.30
2019-02-09T03:27:47.233Z,68.40
2019-02-09T03:30:51.403Z,68.50
2019-02-09T03:33:55.627Z,68.80
2019-02-09T03:36:59.727Z,68.80
2019-02-09T03:40:04.448Z,69.10
2019-02-09T03:43:08.560Z,69.20
2019-02-09T03:46:12.706Z,69.10
2019-02-09T03:49:16.947Z,69.10
2019-02-09T03:52:21.202Z,69.10
2019-02-09T03:55:25.311Z,69.20
2019-02-09T03:58:29.507Z,68.90
2019-02-09T04:01:33.599Z,68.70
2019-02-09T04:04:37.757Z,68.90
2019-02-09T04:07:41.830Z,69.50
2019-02-09T04:10:46.036Z,68.60
2019-02-09T04:13:50.219Z,68.40
2019-02-09T04:16:54.386Z,68.40
2019-02-09T04:19:58.613Z,68.30
2019-02-09T04:23:02.804Z,68.30
2019-02-09T04:26:06.901Z,68.30
2019-02-09T04:29:11.056Z,68.20
2019-02-09T04:32:15.241Z,68.20
2019-02-09T04:35:19.436Z,68.10
2019-02-09T04:38:23.546Z,68.10
2019-02-09T04:41:27.694Z,68.00
2019-02-09T04:44:31.932Z,67.80
2019-02-09T04:47:36.157Z,68.00
2019-02-09T04:50:40.386Z,68.00
2019-02-09T04:53:44.790Z,68.00
2019-02-09T04:56:48.885Z,67.80
2019-02-09T04:59:53.060Z,68.40
2019-02-09T05:02:57.192Z,67.90
2019-02-09T05:06:01.337Z,67.60
2019-02-09T05:09:07.420Z,67.70
2019-02-09T05:12:11.628Z,67.60
2019-02-09T05:15:16.140Z,67.60
2019-02-09T05:18:20.337Z,67.50
2019-02-09T05:21:24.518Z,67.40
2019-02-09T05:24:28.794Z,67.30
2019-02-09T05:27:32.994Z,67.20
2019-02-09T05:30:37.200Z,67.10
2019-02-09T05:33:41.296Z,67.00
2019-02-09T05:36:45.450Z,66.80
2019-02-09T05:39:49.558Z,66.80
2019-02-09T05:42:53.752Z,66.70
2019-02-09T05:45:57.888Z,66.70
2019-02-09T05:49:02.108Z,66.50
2019-02-09T05:52:06.344Z,66.60
2019-02-09T05:55:10.626Z,66.80
2019-02-09T05:58:14.735Z,67.20
2019-02-09T06:01:18.945Z,67.00
2019-02-09T06:04:23.150Z,66.90
2019-02-09T06:07:27.346Z,67.00
2019-02-09T06:10:31.440Z,68.20
2019-02-09T06:13:35.636Z,67.40
2019-02-09T06:16:39.740Z,68.20
2019-02-09T06:19:43.963Z,67.50
2019-02-09T06:22:48.225Z,67.70
2019-02-09T06:25:52.924Z,67.70
2019-02-09T06:28:57.111Z,67.70
2019-02-09T06:32:01.329Z,68.70
2019-02-09T06:35:06.033Z,68.10
2019-02-09T06:38:10.214Z,68.30
2019-02-09T06:41:14.363Z,68.40
2019-02-09T06:44:18.485Z,68.70
2019-02-09T06:47:22.614Z,68.90
2019-02-09T06:50:29.116Z,69.10
2019-02-09T06:53:33.252Z,69.20
2019-02-09T06:56:37.380Z,69.50
2019-02-09T06:59:41.575Z,69.70
2019-02-09T07:02:45.782Z,69.80
2019-02-09T07:05:49.889Z,70.10
2019-02-09T07:08:54.020Z,70.40
2019-02-09T07:11:58.133Z,70.70
2019-02-09T07:15:02.335Z,70.90
2019-02-09T07:18:06.568Z,71.30
2019-02-09T07:21:10.748Z,72.20
2019-02-09T07:24:14.903Z,73.10
2019-02-09T07:27:19.068Z,73.30
2019-02-09T07:30:25.010Z,74.10
2019-02-09T07:33:29.216Z,74.80
2019-02-09T07:36:33.383Z,75.00
2019-02-09T07:39:37.614Z,76.00
2019-02-09T07:42:41.807Z,76.40
2019-02-09T07:45:46.014Z,76.50
2019-02-09T07:48:50.192Z,76.50
2019-02-09T07:51:54.350Z,76.40
2019-02-09T07:54:58.594Z,77.30
2019-02-09T07:58:02.800Z,77.70
2019-02-09T08:01:06.928Z,77.50
2019-02-09T08:04:11.080Z,77.10
2019-02-09T08:07:15.265Z,77.60
2019-02-09T08:10:21.463Z,77.90
2019-02-09T08:13:25.589Z,77.70
2019-02-09T08:16:29.812Z,78.20
2019-02-09T08:19:34.035Z,78.40
2019-02-09T08:22:38.276Z,78.40
2019-02-09T08:25:43.715Z,78.40
2019-02-09T08:28:47.940Z,78.70
2019-02-09T08:31:52.059Z,78.30
2019-02-09T08:34:56.233Z,78.40
2019-02-09T08:38:00.368Z,78.40
2019-02-09T08:41:04.537Z,78.70
2019-02-09T08:44:08.731Z,78.80
2019-02-09T08:47:12.888Z,78.70
2019-02-09T08:50:20.042Z,78.90
2019-02-09T08:53:24.370Z,79.30
2019-02-09T08:56:28.592Z,79.10
2019-02-09T08:59:33.488Z,78.90
2019-02-09T09:02:37.710Z,79.00
2019-02-09T09:05:41.935Z,79.00
2019-02-09T09:08:46.329Z,78.80
2019-02-09T09:11:50.479Z,78.50
2019-02-09T09:14:56.046Z,78.60
2019-02-09T09:18:00.264Z,79.50
2019-02-09T09:21:04.994Z,78.80
2019-02-09T09:24:09.195Z,78.80
2019-02-09T09:27:13.494Z,78.50
2019-02-09T09:30:20.011Z,77.90
2019-02-09T09:33:24.185Z,77.90
2019-02-09T09:36:28.411Z,77.80
2019-02-09T09:39:32.699Z,77.90
2019-02-09T09:42:37.072Z,78.20
2019-02-09T09:45:41.349Z,78.00
2019-02-09T09:48:45.486Z,78.70
2019-02-09T09:51:49.615Z,78.00
2019-02-09T09:54:54.017Z,78.20
2019-02-09T09:57:58.260Z,78.30
2019-02-09T10:01:02.475Z,78.20
2019-02-09T10:04:06.651Z,78.10
2019-02-09T10:07:10.838Z,78.20
2019-02-09T10:10:16.776Z,78.40
2019-02-09T10:13:21.040Z,78.40
2019-02-09T10:16:25.232Z,78.30
2019-02-09T10:19:29.429Z,79.20
2019-02-09T10:22:33.611Z,78.30
2019-02-09T10:25:37.841Z,78.00
2019-02-09T10:28:42.116Z,77.80
2019-02-09T10:31:46.267Z,77.80
2019-02-09T10:34:50.488Z,77.80
2019-02-09T10:37:54.726Z,78.00
2019-02-09T10:40:58.908Z,77.80
2019-02-09T10:44:04.626Z,77.50
2019-02-09T10:47:08.940Z,77.30
2019-02-09T10:50:16.527Z,77.00
2019-02-09T10:53:20.858Z,77.00
2019-02-09T10:56:25.082Z,76.90
2019-02-09T10:59:30.330Z,76.20
2019-02-09T11:02:34.661Z,76.00
2019-02-09T11:05:38.796Z,75.60
2019-02-09T11:08:42.925Z,74.40
2019-02-09T11:11:47.025Z,74.30
2019-02-09T11:14:51.398Z,72.70
2019-02-09T11:17:55.480Z,70.90
2019-02-09T11:20:59.654Z,70.10
2019-02-09T11:24:03.802Z,68.40
2019-02-09T11:27:08.193Z,68.00
2019-02-09T11:30:15.348Z,67.50
2019-02-09T11:33:19.612Z,67.00
2019-02-09T11:36:23.784Z,66.10
2019-02-09T11:39:27.979Z,65.70
2019-02-09T11:42:32.140Z,65.50
2019-02-09T11:45:36.309Z,65.00
2019-02-09T11:48:40.403Z,64.90
2019-02-09T11:51:44.547Z,64.60
2019-02-09T11:54:48.788Z,62.80
2019-02-09T11:57:52.917Z,61.70
2019-02-09T12:00:57.240Z,62.50
2019-02-09T12:04:01.705Z,59.10
2019-02-09T12:07:05.868Z,60.10
2019-02-09T12:10:10.381Z,59.90
2019-02-09T12:13:14.563Z,59.70
2019-02-09T12:16:18.797Z,59.40
2019-02-09T12:19:22.925Z,59.70
2019-02-09T12:22:27.130Z,59.50
2019-02-09T12:25:32.658Z,59.40
2019-02-09T12:28:36.842Z,59.30
2019-02-09T12:31:41.053Z,56.60
2019-02-09T12:34:45.840Z,56.60
2019-02-09T12:37:50.066Z,56.90
2019-02-09T12:40:54.217Z,56.90
2019-02-09T12:43:58.390Z,56.00
2019-02-09T12:47:02.607Z,56.40
2019-02-09T12:50:07.061Z,55.50
2019-02-09T12:53:11.197Z,55.70
2019-02-09T12:56:15.356Z,55.70
2019-02-09T12:59:19.522Z,55.60
2019-02-09T13:02:23.645Z,55.70
2019-02-09T13:05:27.864Z,56.20
2019-02-09T13:08:31.947Z,56.10
2019-02-09T13:11:36.087Z,55.60
2019-02-09T13:14:40.349Z,55.70
2019-02-09T13:17:44.572Z,55.50
2019-02-09T13:20:48.663Z,55.50
2019-02-09T13:23:52.796Z,55.60
2019-02-09T13:26:56.895Z,55.60
2019-02-09T13:30:01.038Z,55.70
2019-02-09T13:33:05.331Z,55.30
2019-02-09T13:36:09.535Z,55.20
2019-02-09T13:39:13.637Z,54.60
2019-02-09T13:42:17.760Z,54.40
2019-02-09T13:45:24.285Z,54.10
2019-02-09T13:48:28.888Z,53.60
2019-02-09T13:51:33.047Z,53.80
2019-02-09T13:54:37.182Z,53.20
2019-02-09T13:57:41.274Z,53.50
2019-02-09T14:00:45.493Z,53.00
2019-02-09T14:03:49.811Z,52.90
2019-02-09T14:06:53.869Z,52.90
2019-02-09T14:09:58.129Z,53.10
2019-02-09T14:13:02.260Z,53.80
2019-02-09T14:16:08.398Z,54.00
2019-02-09T14:19:12.225Z,53.10
2019-02-09T14:22:16.430Z,53.00
2019-02-09T14:25:21.064Z,52.70
2019-02-09T14:28:26.858Z,52.70
2019-02-09T14:31:31.067Z,52.50
2019-02-09T14:34:35.315Z,53.50
2019-02-09T14:37:39.507Z,53.70
2019-02-09T14:40:43.631Z,53.00
2019-02-09T14:43:48.424Z,52.80
2019-02-09T14:46:52.829Z,53.60
2019-02-09T14:49:59.001Z,53.50
2019-02-09T14:53:03.122Z,53.80
2019-02-09T14:56:09.165Z,54.10
2019-02-09T14:59:13.320Z,54.40
2019-02-09T15:02:18.068Z,54.70
2019-02-09T15:05:22.448Z,54.70
2019-02-09T15:08:26.581Z,55.00
2019-02-09T15:11:30.755Z,54.90
2019-02-09T15:14:34.968Z,55.10
2019-02-09T15:17:39.270Z,56.10
2019-02-09T15:20:47.167Z,55.50
2019-02-09T15:23:51.265Z,55.70
2019-02-09T15:26:55.496Z,55.90
2019-02-09T15:29:59.608Z,56.10
2019-02-09T15:33:03.771Z,56.10
2019-02-09T15:36:07.967Z,56.20
2019-02-09T15:39:12.219Z,56.40
2019-02-09T15:42:16.368Z,56.80
2019-02-09T15:45:21.901Z,57.10
2019-02-09T15:48:26.069Z,58.00
2019-02-09T15:51:30.287Z,57.70
2019-02-09T15:54:34.388Z,58.10
2019-02-09T15:57:38.520Z,58.60
2019-02-09T16:00:42.713Z,58.80
2019-02-09T16:03:46.964Z,59.10
2019-02-09T16:06:51.073Z,59.40
2019-02-09T16:09:55.362Z,59.80
2019-02-09T16:12:59.553Z,59.90
2019-02-09T16:16:03.782Z,60.40
2019-02-09T16:19:07.911Z,61.60
2019-02-09T16:22:14.191Z,61.60
2019-02-09T16:25:18.556Z,61.60
2019-02-09T16:28:22.824Z,61.70
2019-02-09T16:31:27.635Z,61.90
2019-02-09T16:34:34.037Z,61.90
2019-02-09T16:37:40.302Z,62.20
2019-02-09T16:40:45.099Z,62.30
2019-02-09T16:43:49.963Z,62.60
2019-02-09T16:46:55.422Z,62.70
2019-02-09T16:50:00.271Z,63.20
2019-02-09T16:53:05.418Z,64.20
2019-02-09T16:56:09.764Z,63.90
2019-02-09T16:59:13.977Z,64.00
2019-02-09T17:02:18.096Z,64.30
2019-02-09T17:05:22.418Z,65.30
2019-02-09T17:08:26.930Z,64.90
2019-02-09T17:11:31.618Z,66.00
2019-02-09T17:14:35.962Z,66.70
2019-02-09T17:17:40.222Z,66.30
2019-02-09T17:20:44.644Z,66.10
2019-02-09T17:23:49.039Z,66.20
2019-02-09T17:26:53.658Z,66.30
2019-02-09T17:29:57.907Z,66.30
2019-02-09T17:33:02.082Z,66.50
2019-02-09T17:36:06.416Z,66.60
2019-02-09T17:39:10.675Z,66.80
2019-02-09T17:42:14.943Z,66.60
2019-02-09T17:45:22.279Z,66.80
2019-02-09T17:48:26.506Z,67.00
2019-02-09T17:51:30.692Z,67.20
2019-02-09T17:54:34.933Z,67.20
2019-02-09T17:57:40.332Z,67.20
2019-02-09T18:00:51.501Z,67.40
2019-02-09T18:03:55.610Z,67.30
2019-02-09T18:06:59.862Z,67.10
2019-02-09T18:10:04.025Z,67.20
2019-02-09T18:13:08.285Z,68.20
2019-02-09T18:16:12.414Z,67.50
2019-02-09T18:19:16.642Z,67.50
2019-02-09T18:22:20.831Z,67.40
2019-02-09T18:25:25.277Z,67.50
2019-02-09T18:28:29.962Z,67.60
2019-02-09T18:31:34.219Z,67.50
2019-02-09T18:34:38.326Z,67.60
2019-02-09T18:37:42.533Z,67.70
2019-02-09T18:40:46.996Z,67.90
2019-02-09T18:43:51.242Z,67.80
2019-02-09T18:46:55.467Z,68.00
2019-02-09T18:49:59.737Z,68.00
2019-02-09T18:53:03.948Z,69.30
2019-02-09T18:56:08.234Z,68.40
2019-02-09T18:59:12.430Z,68.70
2019-02-09T19:02:16.692Z,68.60
2019-02-09T19:05:21.576Z,68.50
2019-02-09T19:08:25.964Z,68.40
2019-02-09T19:11:30.329Z,68.60
2019-02-09T19:14:34.620Z,68.50
2019-02-09T19:17:38.973Z,68.80
2019-02-09T19:20:49.372Z,68.60
2019-02-09T19:23:53.498Z,68.60
2019-02-09T19:26:58.013Z,68.80
2019-02-09T19:30:02.182Z,68.80
2019-02-09T19:33:07.053Z,68.80
2019-02-09T19:36:11.226Z,68.90
2019-02-09T19:39:17.167Z,68.80
2019-02-09T19:42:21.337Z,69.80
2019-02-09T19:45:27.684Z,68.80
2019-02-09T19:48:31.817Z,68.70
2019-02-09T19:51:35.956Z,69.00
2019-02-09T19:54:41.239Z,69.00
2019-02-09T19:57:45.387Z,69.00
2019-02-09T20:00:49.541Z,69.30
2019-02-09T20:03:53.779Z,69.30
2019-02-09T20:06:57.904Z,69.50
2019-02-09T20:10:02.195Z,69.60
2019-02-09T20:13:07.454Z,69.80
2019-02-09T20:16:11.879Z,69.90
2019-02-09T20:19:16.186Z,70.20
2019-02-09T20:22:20.550Z,70.60
2019-02-09T20:25:24.745Z,70.80
2019-02-09T20:28:28.960Z,71.20
2019-02-09T20:31:33.063Z,71.40
2019-02-09T20:34:40.128Z,71.50
2019-02-09T20:37:44.614Z,71.30
2019-02-09T20:40:52.889Z,71.40
2019-02-09T20:43:58.381Z,71.20
2019-02-09T20:47:04.109Z,70.90
2019-02-09T20:50:09.396Z,70.70
2019-02-09T20:53:13.648Z,70.80
2019-02-09T20:56:17.882Z,70.60
2019-02-09T20:59:22.134Z,70.50
2019-02-09T21:02:26.311Z,70.50
2019-02-09T21:05:36.576Z,70.50
2019-02-09T21:08:38.367Z,70.70
2019-02-09T21:11:42.833Z,70.70
2019-02-09T21:14:47.054Z,71.00
2019-02-09T21:17:51.573Z,71.40
2019-02-09T21:20:56.007Z,71.40
2019-02-09T21:24:01.677Z,71.40
2019-02-09T21:27:06.267Z,71.20
2019-02-09T21:30:11.914Z,71.10
2019-02-09T21:33:16.301Z,71.00
2019-02-09T21:36:20.577Z,70.90
2019-02-09T21:39:24.770Z,71.10
2019-02-09T21:42:29.026Z,70.80
2019-02-09T21:45:33.405Z,70.60
2019-02-09T21:48:37.619Z,71.70
2019-02-09T21:51:41.829Z,70.90
2019-02-09T21:54:46.202Z,70.90
2019-02-09T21:57:50.478Z,70.70
2019-02-09T22:00:54.861Z,70.90
2019-02-09T22:03:59.124Z,70.70
2019-02-09T22:07:03.431Z,70.70
2019-02-09T22:10:09.242Z,70.80
2019-02-09T22:13:13.552Z,71.00
2019-02-09T22:16:17.840Z,70.70
2019-02-09T22:19:22.003Z,70.80
2019-02-09T22:22:26.195Z,70.60
2019-02-09T22:25:30.462Z,70.50
2019-02-09T22:28:35.214Z,70.50
2019-02-09T22:31:40.238Z,70.70
2019-02-09T22:34:44.622Z,70.60
2019-02-09T22:37:48.973Z,70.40
2019-02-09T22:40:53.479Z,71.30
2019-02-09T22:43:57.945Z,70.50
2019-02-09T22:47:02.410Z,70.30
2019-02-09T22:50:09.804Z,70.30
2019-02-09T22:53:14.025Z,70.30
2019-02-09T22:56:18.381Z,70.30
2019-02-09T22:59:22.988Z,70.20
2019-02-09T23:02:27.500Z,70.10
2019-02-09T23:06:40.505Z,70.30
2019-02-09T23:09:44.847Z,70.10
2019-02-09T23:12:49.046Z,70.20
2019-02-09T23:15:53.300Z,70.30
2019-02-09T23:18:57.492Z,70.30
2019-02-09T23:22:01.734Z,70.30
2019-02-09T23:25:06.315Z,70.40
2019-02-09T23:28:10.560Z,71.20
2019-02-09T23:31:14.656Z,70.50
2019-02-09T23:34:18.801Z,70.50
2019-02-09T23:37:22.970Z,70.40
2019-02-09T23:40:27.101Z,70.50
2019-02-09T23:43:31.292Z,70.50
2019-02-09T23:46:35.476Z,70.30
2019-02-09T23:49:39.624Z,70.30
2019-02-09T23:52:43.831Z,70.40
2019-02-09T23:55:47.954Z,70.30
2019-02-09T23:58:52.236Z,70.40
